createdAt,value
2018-04-12T00:00:20.014Z,88.93
2018-04-12T00:02:47.600Z,88.94
2018-04-12T00:05:15.229Z,90.29
2018-04-12T00:07:42.820Z,90.43
2018-04-12T00:10:10.453Z,90.52
2018-04-12T00:12:38.123Z,91.02
2018-04-12T00:15:05.749Z,91.33
2018-04-12T00:17:33.378Z,90.86
2018-04-12T00:20:01.047Z,91.09
2018-04-12T00:22:28.706Z,90.68
2018-04-12T00:24:56.333Z,91.45
2018-04-12T00:27:24.007Z,91.79
2018-04-12T00:29:51.663Z,91.94
2018-04-12T00:32:19.344Z,92.46
2018-04-12T00:34:47.021Z,90.35
2018-04-12T00:37:14.673Z,89.39
2018-04-12T00:39:42.288Z,89.15
2018-04-12T00:42:09.954Z,89.26
2018-04-12T00:44:37.569Z,90.43
2018-04-12T00:47:05.168Z,90.58
2018-04-12T00:49:32.825Z,91.67
2018-04-12T00:52:00.426Z,92.50
2018-04-12T00:54:28.106Z,93.21
2018-04-12T00:56:55.790Z,91.71
2018-04-12T00:59:23.395Z,91.23
2018-04-12T01:01:51.022Z,91.82
2018-04-12T01:04:18.692Z,91.39
2018-04-12T01:06:46.355Z,92.05
2018-04-12T01:09:13.998Z,92.97
2018-04-12T01:11:41.654Z,93.87
2018-04-12T01:14:09.405Z,93.38
2018-04-12T01:16:37.002Z,93.35
2018-04-12T01:19:04.681Z,93.36
2018-04-12T01:21:32.261Z,93.01
2018-04-12T01:23:59.862Z,93.08
2018-04-12T01:26:27.487Z,93.62
2018-04-12T01:28:55.075Z,94.13
2018-04-12T01:31:22.665Z,94.84
2018-04-12T01:33:50.297Z,95.04
2018-04-12T01:36:17.889Z,95.19
2018-04-12T01:38:45.489Z,95.77
2018-04-12T01:41:13.125Z,95.36
2018-04-12T01:43:40.715Z,95.60
2018-04-12T01:46:08.319Z,95.07
2018-04-12T01:48:35.965Z,94.40
2018-04-12T01:51:03.562Z,94.17
2018-04-12T01:53:31.177Z,94.41
2018-04-12T01:55:58.810Z,94.93
2018-04-12T01:58:26.444Z,94.70
2018-04-12T02:00:54.041Z,94.30
2018-04-12T02:03:21.668Z,94.37
2018-04-12T02:05:49.280Z,94.17
2018-04-12T02:08:16.872Z,94.25
2018-04-12T02:10:44.524Z,94.69
2018-04-12T02:13:12.169Z,95.40
2018-04-12T02:15:39.761Z,95.63
2018-04-12T02:18:07.414Z,95.43
2018-04-12T02:20:35.015Z,95.53
2018-04-12T02:23:02.614Z,95.77
2018-04-12T02:25:30.253Z,94.57
2018-04-12T02:27:57.833Z,94.71
2018-04-12T02:30:25.462Z,94.70
2018-04-12T02:32:53.094Z,92.98
2018-04-12T02:35:20.693Z,92.01
2018-04-12T02:37:48.329Z,92.13
2018-04-12T02:40:15.949Z,93.20
2018-04-12T02:42:43.542Z,93.02
2018-04-12T02:45:11.141Z,93.58
2018-04-12T02:47:38.744Z,93.96
2018-04-12T02:50:06.345Z,95.11
2018-04-12T02:52:33.947Z,95.60
2018-04-12T02:55:01.584Z,94.29
2018-04-12T02:57:29.191Z,94.36
2018-04-12T02:59:56.778Z,94.77
2018-04-12T03:02:24.412Z,94.77
2018-04-12T03:04:52.023Z,94.92
2018-04-12T03:07:19.623Z,95.54
2018-04-12T03:09:47.272Z,95.47
2018-04-12T03:12:14.864Z,95.65
2018-04-12T03:14:42.456Z,94.87
2018-04-12T03:17:10.080Z,95.28
2018-04-12T03:19:37.665Z,95.24
2018-04-12T03:22:05.269Z,94.99
2018-04-12T03:24:32.984Z,94.24
2018-04-12T03:27:00.540Z,94.48
2018-04-12T03:29:28.146Z,94.88
2018-04-12T03:31:55.776Z,94.99
2018-04-12T03:34:23.381Z,94.44
2018-04-12T03:36:50.978Z,94.00
2018-04-12T03:39:18.603Z,94.85
2018-04-12T03:41:46.201Z,94.06
2018-04-12T03:44:13.806Z,94.28
2018-04-12T03:46:41.430Z,94.09
2018-04-12T03:49:09.058Z,94.29
2018-04-12T03:51:36.700Z,94.95
2018-04-12T03:54:04.377Z,94.66
2018-04-12T03:56:31.976Z,94.37
2018-04-12T03:58:59.580Z,93.89
2018-04-12T04:01:27.213Z,92.08
2018-04-12T04:03:54.804Z,89.49
2018-04-12T04:06:22.398Z,86.87
2018-04-12T04:08:50.032Z,83.76
2018-04-12T04:11:17.642Z,80.41
2018-04-12T04:13:45.245Z,77.19
2018-04-12T04:16:24.661Z,73.85
2018-04-12T04:19:03.887Z,71.02
2018-04-12T04:21:32.620Z,69.12
2018-04-12T04:24:00.212Z,66.69
2018-04-12T04:26:27.818Z,64.67
2018-04-12T04:28:55.575Z,63.44
2018-04-12T04:31:23.936Z,61.37
2018-04-12T04:33:51.528Z,59.25
2018-04-12T04:36:19.153Z,57.16
2018-04-12T04:38:46.745Z,55.25
2018-04-12T04:41:14.334Z,53.88
2018-04-12T04:43:42.046Z,52.58
2018-04-12T04:46:09.662Z,51.38
2018-04-12T04:48:37.284Z,50.56
2018-04-12T04:51:04.925Z,49.53
2018-04-12T04:53:32.517Z,46.88
2018-04-12T04:56:00.114Z,47.35
2018-04-12T04:58:27.751Z,47.78
2018-04-12T05:00:55.386Z,45.51
2018-04-12T05:03:23.027Z,44.44
2018-04-12T05:05:50.726Z,42.73
2018-04-12T05:08:18.352Z,42.53
2018-04-12T05:10:45.973Z,40.38
2018-04-12T05:13:13.593Z,39.72
2018-04-12T05:15:41.198Z,39.91
2018-04-12T05:18:25.560Z,39.00
2018-04-12T05:20:53.152Z,38.46
2018-04-12T05:23:20.801Z,37.48
2018-04-12T05:25:48.491Z,37.39
2018-04-12T05:28:16.071Z,36.62
2018-04-12T05:30:43.681Z,35.43
2018-04-12T05:33:11.313Z,35.24
2018-04-12T05:35:38.911Z,35.31
2018-04-12T05:38:06.510Z,34.22
2018-04-12T05:40:34.148Z,35.27
2018-04-12T05:43:01.762Z,38.18
2018-04-12T05:45:29.362Z,35.47
2018-04-12T05:47:57.001Z,33.57
2018-04-12T05:50:24.603Z,33.83
2018-04-12T05:52:52.226Z,35.50
2018-04-12T05:55:19.859Z,33.88
2018-04-12T05:57:47.460Z,34.59
2018-04-12T06:00:15.060Z,32.10
2018-04-12T06:02:42.689Z,31.70
2018-04-12T06:05:10.293Z,31.86
2018-04-12T06:07:37.905Z,30.65
2018-04-12T06:10:05.545Z,30.46
2018-04-12T06:12:33.140Z,29.36
2018-04-12T06:15:00.725Z,29.98
2018-04-12T06:17:28.379Z,30.71
2018-04-12T06:19:55.978Z,29.76
2018-04-12T06:22:23.585Z,29.30
2018-04-12T06:24:51.220Z,28.43
2018-04-12T06:27:18.817Z,28.84
2018-04-12T06:29:46.421Z,29.62
2018-04-12T06:32:14.058Z,30.87
2018-04-12T06:34:41.657Z,29.37
2018-04-12T06:37:09.246Z,28.36
2018-04-12T06:39:36.873Z,26.54
2018-04-12T06:42:04.485Z,26.90
2018-04-12T06:44:32.099Z,27.53
2018-04-12T06:46:59.757Z,26.21
2018-04-12T06:49:27.349Z,26.79
2018-04-12T06:51:54.946Z,24.95
2018-04-12T06:54:22.589Z,25.81
2018-04-12T06:56:50.183Z,24.92
2018-04-12T06:59:17.794Z,24.39
2018-04-12T07:01:45.433Z,24.28
2018-04-12T07:04:13.030Z,24.95
2018-04-12T07:06:40.624Z,26.54
2018-04-12T07:09:08.245Z,26.66
2018-04-12T07:11:35.874Z,26.52
2018-04-12T07:14:03.473Z,24.67
2018-04-12T07:16:31.102Z,24.49
2018-04-12T07:18:58.700Z,25.04
2018-04-12T07:21:26.357Z,25.29
2018-04-12T07:23:53.990Z,25.29
2018-04-12T07:26:21.591Z,24.80
2018-04-12T07:28:49.191Z,23.85
2018-04-12T07:31:16.826Z,26.06
2018-04-12T07:33:44.428Z,23.90
2018-04-12T07:36:12.025Z,23.88
2018-04-12T07:38:39.684Z,24.45
2018-04-12T07:41:07.336Z,26.18
2018-04-12T07:43:34.968Z,25.28
2018-04-12T07:46:02.597Z,24.27
2018-04-12T07:48:30.189Z,23.57
2018-04-12T07:50:57.781Z,24.09
2018-04-12T07:53:25.436Z,25.63
2018-04-12T07:55:53.055Z,26.95
2018-04-12T07:58:20.644Z,26.26
2018-04-12T08:00:48.274Z,26.69
2018-04-12T08:03:15.860Z,25.83
2018-04-12T08:05:43.440Z,23.65
2018-04-12T08:08:11.067Z,27.17
2018-04-12T08:10:38.659Z,26.49
2018-04-12T08:13:06.253Z,26.18
2018-04-12T08:15:33.910Z,25.33
2018-04-12T08:18:01.529Z,24.94
2018-04-12T08:20:29.223Z,27.06
2018-04-12T08:22:56.867Z,25.57
2018-04-12T08:25:24.467Z,25.43
2018-04-12T08:27:52.060Z,26.91
2018-04-12T08:30:19.688Z,27.93
2018-04-12T08:32:47.288Z,26.04
2018-04-12T08:35:14.881Z,27.56
2018-04-12T08:37:42.509Z,26.54
2018-04-12T08:40:10.097Z,28.09
2018-04-12T08:42:37.711Z,27.73
2018-04-12T08:45:05.356Z,25.52
2018-04-12T08:47:32.952Z,26.63
2018-04-12T08:50:00.636Z,25.90
2018-04-12T08:52:28.265Z,26.51
2018-04-12T08:54:55.862Z,27.11
2018-04-12T08:57:23.462Z,28.91
2018-04-12T08:59:51.089Z,27.61
2018-04-12T09:02:18.678Z,27.55
2018-04-12T09:04:46.303Z,25.82
2018-04-12T09:07:13.940Z,25.12
2018-04-12T09:09:41.521Z,25.02
2018-04-12T09:12:09.104Z,24.28
2018-04-12T09:14:36.732Z,27.08
2018-04-12T09:17:04.342Z,26.15
2018-04-12T09:19:31.931Z,25.36
2018-04-12T09:21:59.601Z,24.66
2018-04-12T09:24:27.193Z,24.18
2018-04-12T09:26:54.785Z,24.18
2018-04-12T09:29:22.483Z,25.45
2018-04-12T09:31:50.072Z,25.39
2018-04-12T09:34:17.668Z,27.44
2018-04-12T09:36:45.354Z,24.29
2018-04-12T09:39:12.945Z,24.16
2018-04-12T09:41:40.549Z,23.36
2018-04-12T09:44:08.161Z,24.74
2018-04-12T09:46:35.760Z,25.25
2018-04-12T09:49:03.413Z,23.05
2018-04-12T09:51:31.058Z,22.83
2018-04-12T09:53:58.645Z,22.97
2018-04-12T09:56:26.237Z,23.84
2018-04-12T09:58:53.952Z,23.31
2018-04-12T10:01:21.592Z,24.65
2018-04-12T10:03:49.246Z,27.82
2018-04-12T10:06:22.846Z,26.85
2018-04-12T10:08:55.903Z,27.12
2018-04-12T10:11:23.495Z,26.33
2018-04-12T10:13:51.118Z,26.32
2018-04-12T10:16:18.716Z,25.19
2018-04-12T10:18:46.340Z,24.44
2018-04-12T10:21:13.910Z,24.49
2018-04-12T10:23:41.473Z,23.23
2018-04-12T10:26:09.117Z,24.70
2018-04-12T10:28:36.689Z,23.53
2018-04-12T10:31:05.166Z,23.78
2018-04-12T10:33:32.863Z,25.86
2018-04-12T10:36:00.449Z,24.76
2018-04-12T10:38:28.699Z,24.92
2018-04-12T10:40:56.308Z,24.92
2018-04-12T10:43:23.972Z,24.37
2018-04-12T10:45:51.593Z,23.32
2018-04-12T10:48:19.227Z,22.97
2018-04-12T10:50:46.815Z,24.47
2018-04-12T10:53:14.396Z,23.09
2018-04-12T10:55:42.043Z,21.23
2018-04-12T10:58:09.650Z,23.14
2018-04-12T11:00:37.251Z,22.52
2018-04-12T11:03:04.861Z,22.37
2018-04-12T11:05:32.448Z,21.68
2018-04-12T11:08:00.030Z,22.35
2018-04-12T11:10:27.654Z,22.86
2018-04-12T11:12:55.365Z,22.42
2018-04-12T11:15:22.952Z,23.17
2018-04-12T11:17:50.580Z,23.28
2018-04-12T11:20:18.305Z,21.58
2018-04-12T11:22:45.887Z,23.19
2018-04-12T11:25:13.569Z,21.12
2018-04-12T11:27:41.168Z,23.02
2018-04-12T11:30:08.757Z,24.15
2018-04-12T11:32:36.400Z,22.65
2018-04-12T11:35:04.015Z,22.18
2018-04-12T11:37:31.610Z,21.63
2018-04-12T11:39:59.300Z,21.13
2018-04-12T11:42:26.878Z,20.38
2018-04-12T11:44:54.472Z,20.53
2018-04-12T11:47:22.080Z,19.49
2018-04-12T11:49:49.868Z,17.50
2018-04-12T11:52:17.429Z,17.09
2018-04-12T11:54:45.065Z,18.31
2018-04-12T11:57:12.644Z,19.99
2018-04-12T11:59:40.264Z,21.27
2018-04-12T12:02:07.871Z,21.53
2018-04-12T12:04:35.457Z,22.61
2018-04-12T12:07:03.194Z,21.53
2018-04-12T12:09:30.810Z,20.02
2018-04-12T12:11:58.534Z,20.02
2018-04-12T12:14:26.121Z,18.53
2018-04-12T12:16:53.745Z,20.33
2018-04-12T12:19:21.531Z,20.17
2018-04-12T12:21:49.090Z,20.24
2018-04-12T12:24:16.690Z,18.98
2018-04-12T12:26:44.278Z,18.74
2018-04-12T12:29:11.844Z,18.89
2018-04-12T12:31:39.446Z,16.09
2018-04-12T12:34:07.016Z,18.43
2018-04-12T12:36:34.601Z,18.56
2018-04-12T12:39:02.215Z,19.04
2018-04-12T12:41:29.799Z,18.45
2018-04-12T12:43:57.375Z,17.44
2018-04-12T12:46:24.989Z,17.20
2018-04-12T12:48:52.583Z,18.23
2018-04-12T12:51:20.155Z,18.12
2018-04-12T12:53:47.767Z,18.76
2018-04-12T12:56:15.340Z,19.62
2018-04-12T12:58:42.914Z,20.38
2018-04-12T13:01:10.530Z,19.51
2018-04-12T13:03:38.107Z,19.24
2018-04-12T13:06:05.697Z,18.84
2018-04-12T13:08:33.310Z,20.13
2018-04-12T13:11:00.878Z,19.83
2018-04-12T13:13:28.502Z,20.95
2018-04-12T13:15:56.085Z,21.53
2018-04-12T13:18:23.669Z,21.96
2018-04-12T13:20:51.256Z,22.91
2018-04-12T13:23:18.907Z,24.06
2018-04-12T13:25:46.494Z,23.73
2018-04-12T13:28:14.128Z,23.82
2018-04-12T13:30:41.758Z,24.57
2018-04-12T13:33:09.399Z,24.31
2018-04-12T13:35:37.012Z,23.92
2018-04-12T13:38:04.638Z,24.96
2018-04-12T13:40:32.325Z,25.93
2018-04-12T13:42:59.927Z,25.54
2018-04-12T13:45:27.544Z,25.35
2018-04-12T13:47:55.143Z,25.89
2018-04-12T13:50:22.720Z,25.97
2018-04-12T13:52:50.340Z,25.85
2018-04-12T13:55:17.943Z,25.46
2018-04-12T13:57:45.558Z,26.17
2018-04-12T14:00:13.181Z,27.40
2018-04-12T14:02:40.770Z,26.55
2018-04-12T14:05:08.345Z,27.07
2018-04-12T14:07:36.034Z,27.09
2018-04-12T14:10:03.619Z,27.40
2018-04-12T14:12:31.184Z,27.40
2018-04-12T14:14:58.805Z,27.56
2018-04-12T14:17:26.403Z,28.40
2018-04-12T14:19:54.102Z,27.24
2018-04-12T14:22:21.750Z,27.48
2018-04-12T14:24:49.324Z,27.06
2018-04-12T14:27:16.905Z,27.65
2018-04-12T14:29:44.573Z,28.05
2018-04-12T14:32:12.163Z,28.17
2018-04-12T14:34:39.742Z,28.73
2018-04-12T14:37:07.369Z,28.81
2018-04-12T14:39:34.930Z,28.96
2018-04-12T14:42:02.523Z,29.56
2018-04-12T14:44:30.137Z,29.90
2018-04-12T14:46:57.736Z,29.90
2018-04-12T14:49:25.325Z,29.98
2018-04-12T14:51:52.960Z,30.74
2018-04-12T14:54:20.544Z,29.98
2018-04-12T14:56:48.117Z,30.12
2018-04-12T14:59:15.718Z,30.69
2018-04-12T15:01:43.296Z,30.29
2018-04-12T15:04:10.877Z,29.86
2018-04-12T15:06:38.584Z,30.31
2018-04-12T15:09:06.220Z,31.38
2018-04-12T15:11:33.810Z,31.37
2018-04-12T15:14:01.437Z,31.26
2018-04-12T15:16:29.021Z,31.37
2018-04-12T15:18:56.601Z,31.80
2018-04-12T15:21:24.222Z,31.81
2018-04-12T15:23:51.852Z,31.79
2018-04-12T15:26:19.431Z,31.83
2018-04-12T15:28:47.073Z,31.90
2018-04-12T15:31:14.677Z,31.39
2018-04-12T15:33:42.376Z,31.80
2018-04-12T15:36:09.997Z,31.74
2018-04-12T15:38:37.686Z,32.38
2018-04-12T15:41:05.282Z,32.46
2018-04-12T15:43:32.888Z,32.82
2018-04-12T15:46:00.472Z,32.58
2018-04-12T15:48:28.059Z,32.80
2018-04-12T15:50:55.682Z,32.62
2018-04-12T15:53:23.271Z,32.96
2018-04-12T15:55:50.876Z,32.65
2018-04-12T15:58:18.497Z,33.21
2018-04-12T16:00:46.102Z,35.18
2018-04-12T16:03:13.689Z,34.94
2018-04-12T16:05:42.054Z,34.52
2018-04-12T16:08:09.630Z,33.99
2018-04-12T16:10:37.378Z,34.43
2018-04-12T16:13:04.972Z,34.76
2018-04-12T16:15:32.546Z,35.05
2018-04-12T16:18:00.137Z,35.16
2018-04-12T16:20:27.748Z,36.00
2018-04-12T16:22:55.346Z,36.41
2018-04-12T16:25:22.927Z,36.80
2018-04-12T16:27:50.558Z,37.00
2018-04-12T16:30:18.152Z,38.67
2018-04-12T16:32:45.750Z,41.75
2018-04-12T16:35:13.360Z,39.91
2018-04-12T16:37:40.930Z,42.98
2018-04-12T16:40:08.517Z,42.77
2018-04-12T16:42:36.134Z,42.70
2018-04-12T16:45:03.759Z,43.21
2018-04-12T16:47:31.358Z,43.74
2018-04-12T16:49:58.999Z,44.39
2018-04-12T16:52:26.902Z,45.34
2018-04-12T16:54:54.521Z,46.09
2018-04-12T16:57:22.133Z,47.64
2018-04-12T16:59:49.753Z,48.21
2018-04-12T17:02:17.372Z,47.82
2018-04-12T17:04:44.984Z,47.20
2018-04-12T17:07:12.677Z,47.81
2018-04-12T17:09:40.317Z,50.74
2018-04-12T17:12:07.965Z,52.85
2018-04-12T17:14:35.602Z,53.47
2018-04-12T17:17:03.239Z,54.04
2018-04-12T17:19:30.903Z,54.17
2018-04-12T17:21:58.570Z,55.35
2018-04-12T17:24:26.231Z,56.66
2018-04-12T17:26:54.148Z,57.24
2018-04-12T17:29:21.843Z,57.08
2018-04-12T17:31:49.461Z,57.07
2018-04-12T17:34:17.094Z,58.06
2018-04-12T17:36:44.695Z,54.38
2018-04-12T17:39:12.290Z,58.26
2018-04-12T17:41:39.926Z,60.01
2018-04-12T17:44:07.549Z,59.45
2018-04-12T17:46:35.148Z,59.53
2018-04-12T17:49:02.791Z,60.31
2018-04-12T17:51:30.396Z,58.80
2018-04-12T17:53:57.991Z,56.26
2018-04-12T17:56:25.625Z,56.90
2018-04-12T17:58:53.272Z,57.53
2018-04-12T18:01:20.869Z,56.02
2018-04-12T18:03:48.526Z,55.74
2018-04-12T18:06:16.125Z,57.09
2018-04-12T18:08:43.721Z,59.29
2018-04-12T18:11:11.356Z,59.64
2018-04-12T18:13:38.943Z,58.10
2018-04-12T18:16:06.536Z,59.21
2018-04-12T18:18:34.149Z,59.17
2018-04-12T18:21:01.736Z,60.89
2018-04-12T18:23:29.312Z,60.43
2018-04-12T18:25:56.943Z,60.27
2018-04-12T18:28:24.529Z,60.06
2018-04-12T18:30:52.117Z,59.45
2018-04-12T18:33:19.734Z,59.13
2018-04-12T18:35:47.330Z,59.03
2018-04-12T18:38:14.932Z,59.00
2018-04-12T18:40:42.639Z,58.35
2018-04-12T18:43:10.274Z,57.99
2018-04-12T18:45:37.848Z,58.30
2018-04-12T18:48:05.460Z,58.19
2018-04-12T18:50:33.036Z,58.63
2018-04-12T18:53:00.615Z,59.22
2018-04-12T18:55:28.280Z,60.79
2018-04-12T18:57:56.044Z,60.51
2018-04-12T19:00:23.623Z,63.03
2018-04-12T19:02:51.230Z,62.13
2018-04-12T19:05:18.802Z,62.41
2018-04-12T19:07:46.404Z,62.57
2018-04-12T19:10:14.019Z,63.35
2018-04-12T19:12:41.615Z,62.77
2018-04-12T19:15:09.195Z,62.97
2018-04-12T19:17:36.836Z,64.43
2018-04-12T19:20:04.414Z,63.91
2018-04-12T19:22:32.028Z,65.66
2018-04-12T19:24:59.650Z,64.23
2018-04-12T19:27:27.296Z,67.28
2018-04-12T19:29:54.871Z,66.25
2018-04-12T19:32:22.471Z,66.94
2018-04-12T19:34:50.066Z,67.70
2018-04-12T19:37:17.694Z,67.23
2018-04-12T19:39:45.296Z,66.35
2018-04-12T19:42:18.808Z,66.70
2018-04-12T19:44:46.478Z,68.27
2018-04-12T19:47:14.064Z,67.22
2018-04-12T19:49:41.656Z,68.33
2018-04-12T19:52:09.325Z,67.31
2018-04-12T19:54:36.900Z,64.57
2018-04-12T19:57:04.477Z,66.58
2018-04-12T19:59:32.102Z,67.20
2018-04-12T20:01:59.686Z,67.50
2018-04-12T20:04:27.328Z,67.03
2018-04-12T20:06:54.936Z,69.15
2018-04-12T20:09:22.553Z,65.44
2018-04-12T20:11:50.177Z,67.75
2018-04-12T20:14:17.802Z,69.02
2018-04-12T20:16:45.390Z,68.38
2018-04-12T20:19:12.968Z,69.52
2018-04-12T20:21:40.576Z,71.07
2018-04-12T20:24:08.156Z,67.34
2018-04-12T20:26:35.733Z,65.49
2018-04-12T20:29:03.347Z,65.76
2018-04-12T20:31:30.933Z,64.55
2018-04-12T20:33:58.525Z,63.97
2018-04-12T20:36:26.219Z,62.34
2018-04-12T20:38:53.806Z,60.82
2018-04-12T20:41:21.450Z,58.79
2018-04-12T20:43:49.089Z,58.93
2018-04-12T20:46:16.681Z,58.97
2018-04-12T20:48:44.399Z,58.07
2018-04-12T20:51:12.102Z,57.56
2018-04-12T20:53:39.698Z,57.50
2018-04-12T20:56:07.305Z,57.06
2018-04-12T20:58:34.922Z,56.64
2018-04-12T21:01:02.577Z,56.52
2018-04-12T21:03:30.184Z,56.13
2018-04-12T21:05:57.817Z,55.98
2018-04-12T21:08:25.428Z,55.52
2018-04-12T21:10:53.090Z,55.36
2018-04-12T21:13:20.716Z,55.53
2018-04-12T21:15:48.311Z,55.56
2018-04-12T21:18:15.906Z,56.00
2018-04-12T21:20:43.543Z,55.56
2018-04-12T21:23:11.124Z,55.79
2018-04-12T21:25:38.719Z,53.64
2018-04-12T21:28:06.341Z,55.72
2018-04-12T21:30:33.928Z,54.69
2018-04-12T21:33:01.513Z,53.03
2018-04-12T21:35:29.170Z,53.17
2018-04-12T21:37:56.762Z,52.32
2018-04-12T21:40:24.362Z,55.25
2018-04-12T21:42:52.035Z,54.36
2018-04-12T21:45:19.620Z,54.54
2018-04-12T21:47:47.198Z,53.30
2018-04-12T21:50:14.819Z,57.45
2018-04-12T21:52:42.394Z,58.36
2018-04-12T21:55:09.983Z,61.57
2018-04-12T21:57:37.609Z,64.41
2018-04-12T22:00:05.256Z,65.27
2018-04-12T22:02:32.844Z,63.65
2018-04-12T22:05:00.470Z,64.81
2018-04-12T22:07:28.086Z,67.93
2018-04-12T22:09:55.674Z,64.67
2018-04-12T22:12:23.328Z,62.04
2018-04-12T22:14:50.905Z,65.02
2018-04-12T22:17:18.531Z,67.01
2018-04-12T22:19:46.188Z,67.96
2018-04-12T22:22:13.941Z,68.49
2018-04-12T22:24:41.525Z,69.15
2018-04-12T22:27:09.177Z,69.86
2018-04-12T22:29:36.940Z,70.66
2018-04-12T22:32:04.601Z,71.29
2018-04-12T22:34:32.233Z,72.16
2018-04-12T22:36:59.863Z,72.84
2018-04-12T22:39:27.505Z,73.49
2018-04-12T22:41:55.134Z,74.05
2018-04-12T22:44:22.736Z,74.59
2018-04-12T22:46:50.321Z,75.53
2018-04-12T22:49:17.942Z,75.85
2018-04-12T22:51:45.905Z,75.26
2018-04-12T22:54:13.499Z,76.08
2018-04-12T22:56:41.408Z,76.59
2018-04-12T22:59:09.276Z,76.54
2018-04-12T23:01:36.897Z,76.60
2018-04-12T23:04:04.536Z,77.08
2018-04-12T23:06:32.234Z,77.43
2018-04-12T23:08:59.797Z,77.69
2018-04-12T23:11:27.419Z,78.30
2018-04-12T23:13:55.017Z,77.94
2018-04-12T23:16:22.720Z,78.28
2018-04-12T23:18:50.351Z,79.72
2018-04-12T23:21:18.055Z,81.22
2018-04-12T23:23:45.719Z,80.16
2018-04-12T23:26:13.380Z,81.43
2018-04-12T23:28:40.972Z,81.31
2018-04-12T23:31:08.693Z,84.13
2018-04-12T23:33:36.367Z,83.49
2018-04-12T23:36:04.029Z,82.91
2018-04-12T23:38:31.772Z,82.06
2018-04-12T23:40:59.384Z,82.11
2018-04-12T23:43:26.981Z,83.17
2018-04-12T23:45:54.573Z,83.88
2018-04-12T23:48:22.545Z,85.34
2018-04-12T23:50:50.138Z,84.96
2018-04-12T23:53:17.870Z,85.58
2018-04-12T23:55:45.524Z,85.80
2018-04-12T23:58:13.157Z,86.28
